Time;durP1;ratioP1;P1;durP2;ratioP2;P2;SDS_P1;SDS_P2;PMS_P1;PMS_P2;Temp;Humidity;BMP_temperature;BMP_pressure;BME280_temperature;BME280_humidity;BME280_pressure;Samples;Min_cycle;Max_cycle;Signal;HPM_P1;HPM_P2
2023/11/06 00:00:05;;;;;;;4.10;2.43;;;;;;;;;;5117329;28;20462;-59
2023/11/06 00:02:32;;;;;;;2.23;0.90;;;;;;;;;;5117284;28;20532;-59
2023/11/06 00:04:59;;;;;;;2.37;1.20;;;;;;;;;;5117299;28;20477;-59
2023/11/06 00:07:26;;;;;;;1.20;1.10;;;;;;;;;;5117351;28;20502;-59
2023/11/06 00:09:54;;;;;;;1.77;1.40;;;;;;;;;;5117253;28;20442;-59
2023/11/06 00:12:22;;;;;;;1.97;1.27;;;;;;;;;;5117405;28;20537;-59
2023/11/06 00:14:49;;;;;;;2.10;1.27;;;;;;;;;;5117095;28;20450;-59
2023/11/06 00:17:16;;;;;;;1.10;1.00;;;;;;;;;;5117083;28;20445;-59
2023/11/06 00:19:43;;;;;;;2.37;1.00;;;;;;;;;;5117152;28;20793;-59
2023/11/06 00:22:10;;;;;;;2.33;1.33;;;;;;;;;;5117018;28;20437;-59
2023/11/06 00:24:37;;;;;;;3.53;1.23;;;;;;;;;;5116862;28;20855;-59
2023/11/06 00:27:06;;;;;;;2.27;1.10;;;;;;;;;;5116824;28;20532;-59
2023/11/06 00:29:33;;;;;;;1.77;1.03;;;;;;;;;;5116864;28;20445;-59
2023/11/06 00:32:02;;;;;;;1.27;1.17;;;;;;;;;;5116742;28;20991;-59
2023/11/06 00:34:29;;;;;;;3.03;1.77;;;;;;;;;;5116570;28;20479;-59
2023/11/06 00:36:56;;;;;;;2.63;1.50;;;;;;;;;;5116710;28;20536;-59
2023/11/06 00:39:24;;;;;;;2.87;1.17;;;;;;;;;;5116584;28;20441;-59
2023/11/06 00:41:51;;;;;;;3.40;1.37;;;;;;;;;;5116580;28;20442;-59
2023/11/06 00:44:19;;;;;;;2.90;1.60;;;;;;;;;;5116204;28;20480;-59
2023/11/06 00:46:46;;;;;;;6.00;1.40;;;;;;;;;;5116656;28;20526;-59
2023/11/06 00:49:13;;;;;;;2.27;1.10;;;;;;;;;;5116599;28;20525;-59
2023/11/06 00:51:40;;;;;;;3.67;1.43;;;;;;;;;;5116437;28;20506;-59
2023/11/06 00:54:07;;;;;;;2.03;1.53;;;;;;;;;;5115875;28;20452;-59
2023/11/06 00:56:34;;;;;;;3.47;1.63;;;;;;;;;;5116181;28;20437;-60
2023/11/06 00:59:02;;;;;;;2.77;1.20;;;;;;;;;;5116479;28;20444;-59
2023/11/06 01:01:31;;;;;;;1.10;1.00;;;;;;;;;;5116305;28;20487;-60
2023/11/06 01:03:58;;;;;;;1.40;1.30;;;;;;;;;;5116168;28;20530;-59
2023/11/06 01:06:25;;;;;;;8.23;2.50;;;;;;;;;;5116220;28;20532;-60
2023/11/06 01:08:53;;;;;;;1.93;1.27;;;;;;;;;;5116314;28;20442;-60
2023/11/06 01:11:20;;;;;;;2.27;1.27;;;;;;;;;;5115980;28;20495;-59
2023/11/06 01:13:49;;;;;;;1.63;1.10;;;;;;;;;;5116157;28;20446;-60
2023/11/06 01:16:17;;;;;;;1.90;1.23;;;;;;;;;;5116049;28;20491;-59
2023/11/06 01:18:45;;;;;;;5.43;1.40;;;;;;;;;;5115908;28;20437;-59
2023/11/06 01:21:12;;;;;;;1.47;0.90;;;;;;;;;;5115855;28;20453;-59
2023/11/06 01:23:39;;;;;;;3.73;1.20;;;;;;;;;;5115605;28;20473;-59
2023/11/06 01:26:06;;;;;;;1.80;1.70;;;;;;;;;;5115814;28;20477;-59
2023/11/06 01:28:34;;;;;;;3.03;1.27;;;;;;;;;;5115716;28;20449;-59
2023/11/06 01:31:02;;;;;;;1.27;1.10;;;;;;;;;;5115788;28;20797;-59
2023/11/06 01:33:29;;;;;;;1.30;1.20;;;;;;;;;;5115581;28;20503;-59
2023/11/06 01:35:57;;;;;;;2.40;1.17;;;;;;;;;;5115499;28;20456;-59
2023/11/06 01:38:24;;;;;;;2.37;1.27;;;;;;;;;;5115362;28;20510;-59
2023/11/06 01:40:51;;;;;;;2.07;1.70;;;;;;;;;;5115581;28;20532;-59
2023/11/06 01:43:24;;;;;;;1.10;1.00;;;;;;;;;;5115536;28;20503;-59
2023/11/06 01:45:51;;;;;;;3.90;1.20;;;;;;;;;;5115432;28;20517;-59
2023/11/06 01:48:19;;;;;;;1.10;1.00;;;;;;;;;;5115312;28;20450;-59
2023/11/06 01:50:46;;;;;;;2.70;1.17;;;;;;;;;;5115243;28;20529;-59
2023/11/06 01:53:16;;;;;;;2.50;1.47;;;;;;;;;;5115388;28;20441;-59
2023/11/06 01:55:44;;;;;;;1.33;1.00;;;;;;;;;;5115332;28;20533;-59
2023/11/06 01:58:12;;;;;;;2.70;1.60;;;;;;;;;;5115165;28;20442;-59
2023/11/06 02:00:40;;;;;;;1.20;1.10;;;;;;;;;;5114962;28;20956;-59
2023/11/06 02:03:08;;;;;;;1.50;1.03;;;;;;;;;;5114976;28;20453;-59
2023/11/06 02:05:35;;;;;;;2.33;1.20;;;;;;;;;;5113868;28;20889;-60
2023/11/06 02:08:02;;;;;;;4.60;1.30;;;;;;;;;;5114860;28;20922;-59
2023/11/06 02:10:31;;;;;;;3.57;1.27;;;;;;;;;;5114933;28;20907;-59
2023/11/06 02:12:58;;;;;;;6.40;1.40;;;;;;;;;;5114835;28;20566;-59
2023/11/06 02:15:27;;;;;;;1.37;1.10;;;;;;;;;;5114758;28;20494;-59
2023/11/06 02:17:55;;;;;;;2.03;1.30;;;;;;;;;;5114626;28;20446;-60
2023/11/06 02:20:22;;;;;;;2.33;1.10;;;;;;;;;;5114851;28;20484;-59
2023/11/06 02:22:51;;;;;;;3.20;1.40;;;;;;;;;;5114738;28;20480;-59
2023/11/06 02:25:20;;;;;;;4.90;1.23;;;;;;;;;;5114695;28;20576;-59
2023/11/06 02:27:47;;;;;;;2.13;1.70;;;;;;;;;;5114581;28;20533;-59
2023/11/06 02:30:14;;;;;;;3.57;1.53;;;;;;;;;;5114458;28;20477;-59
2023/11/06 02:32:41;;;;;;;1.30;1.20;;;;;;;;;;5114436;28;20442;-59
2023/11/06 02:35:08;;;;;;;1.77;1.30;;;;;;;;;;5114451;28;20528;-59
2023/11/06 02:37:35;;;;;;;3.40;1.57;;;;;;;;;;5114469;28;20442;-59
2023/11/06 02:40:06;;;;;;;1.40;1.10;;;;;;;;;;5114683;28;20452;-59
2023/11/06 02:42:34;;;;;;;1.93;1.27;;;;;;;;;;5114496;28;20440;-59
2023/11/06 02:45:02;;;;;;;1.97;1.40;;;;;;;;;;5114133;28;20481;-59
2023/11/06 02:47:29;;;;;;;6.43;1.87;;;;;;;;;;5114313;28;20449;-59
2023/11/06 02:49:56;;;;;;;2.77;1.40;;;;;;;;;;5114027;28;20895;-59
2023/11/06 02:52:23;;;;;;;2.30;1.33;;;;;;;;;;5114254;28;20442;-59
2023/11/06 02:54:50;;;;;;;2.43;1.30;;;;;;;;;;5114104;28;20448;-59
2023/11/06 02:57:17;;;;;;;1.23;1.13;;;;;;;;;;5114069;28;20532;-60
2023/11/06 02:59:45;;;;;;;2.10;1.17;;;;;;;;;;5113869;28;20445;-59
2023/11/06 03:02:12;;;;;;;1.53;1.17;;;;;;;;;;5114060;28;20442;-59
2023/11/06 03:04:39;;;;;;;2.17;1.23;;;;;;;;;;5113825;28;20866;-59
2023/11/06 03:07:06;;;;;;;1.73;1.10;;;;;;;;;;5113936;28;20442;-60
2023/11/06 03:09:33;;;;;;;1.97;1.60;;;;;;;;;;5114055;28;20532;-59
2023/11/06 03:12:02;;;;;;;1.33;1.13;;;;;;;;;;5113717;28;20450;-60
2023/11/06 03:14:29;;;;;;;3.60;1.40;;;;;;;;;;5114065;28;20782;-59
2023/11/06 03:16:57;;;;;;;3.40;1.57;;;;;;;;;;5113832;28;20445;-60
2023/11/06 03:19:24;;;;;;;2.17;1.30;;;;;;;;;;5113770;28;20903;-59
2023/11/06 03:21:51;;;;;;;1.27;0.90;;;;;;;;;;5113656;28;20459;-59
2023/11/06 03:24:18;;;;;;;2.17;1.30;;;;;;;;;;5113657;28;20477;-59
2023/11/06 03:26:45;;;;;;;2.43;0.90;;;;;;;;;;5113477;28;20477;-59
2023/11/06 03:29:12;;;;;;;1.50;1.00;;;;;;;;;;5113958;28;20433;-59
2023/11/06 03:31:39;;;;;;;3.63;1.50;;;;;;;;;;5113652;28;20845;-59
2023/11/06 03:34:07;;;;;;;4.57;1.40;;;;;;;;;;5113500;28;20444;-59
2023/11/06 03:36:41;;;;;;;1.20;1.10;;;;;;;;;;5113540;28;20486;-59
2023/11/06 03:39:08;;;;;;;3.43;1.20;;;;;;;;;;5113340;28;20437;-59
2023/11/06 03:41:35;;;;;;;4.20;1.03;;;;;;;;;;5113607;28;20441;-59
2023/11/06 03:44:02;;;;;;;1.60;1.00;;;;;;;;;;5113371;28;20465;-59
2023/11/06 03:46:29;;;;;;;3.43;1.53;;;;;;;;;;5113372;28;20917;-59
2023/11/06 03:48:56;;;;;;;2.03;1.00;;;;;;;;;;5113364;28;20441;-59
2023/11/06 03:51:24;;;;;;;1.83;1.33;;;;;;;;;;5113569;28;20438;-59
2023/11/06 03:53:51;;;;;;;1.77;1.20;;;;;;;;;;5113193;28;20452;-59
2023/11/06 03:56:18;;;;;;;2.60;1.10;;;;;;;;;;5113391;28;20448;-60
2023/11/06 03:58:45;;;;;;;1.30;1.20;;;;;;;;;;5113398;28;20558;-59
2023/11/06 04:01:12;;;;;;;2.07;1.20;;;;;;;;;;5113285;28;20536;-59
2023/11/06 04:03:40;;;;;;;5.30;1.10;;;;;;;;;;5113210;28;20441;-60
2023/11/06 04:06:07;;;;;;;1.50;1.40;;;;;;;;;;5113041;28;20473;-60
2023/11/06 04:08:36;;;;;;;1.73;1.20;;;;;;;;;;5113005;28;20491;-60
2023/11/06 04:11:03;;;;;;;1.40;1.03;;;;;;;;;;5113271;28;20454;-59
2023/11/06 04:13:29;;;;;;;1.50;1.40;;;;;;;;;;5113095;28;20453;-59
2023/11/06 04:15:57;;;;;;;1.57;0.90;;;;;;;;;;5113148;28;20532;-59
2023/11/06 04:18:25;;;;;;;2.07;1.13;;;;;;;;;;5113037;28;20445;-59
2023/11/06 04:20:52;;;;;;;4.60;1.20;;;;;;;;;;5112965;28;20471;-59
2023/11/06 04:23:21;;;;;;;4.50;1.60;;;;;;;;;;5113215;28;20478;-59
2023/11/06 04:25:49;;;;;;;1.33;1.13;;;;;;;;;;5112825;28;20976;-60
2023/11/06 04:28:16;;;;;;;3.13;2.47;;;;;;;;;;5114124;28;20442;-59
2023/11/06 04:30:44;;;;;;;1.33;0.90;;;;;;;;;;5116951;28;20500;-59
2023/11/06 04:33:11;;;;;;;1.83;1.43;;;;;;;;;;5116825;28;20437;-60
2023/11/06 04:35:38;;;;;;;1.90;1.10;;;;;;;;;;5116927;28;20441;-59
2023/11/06 04:38:05;;;;;;;2.10;1.00;;;;;;;;;;5116814;28;20861;-59
2023/11/06 04:40:32;;;;;;;5.13;1.20;;;;;;;;;;5116577;28;20448;-59
2023/11/06 04:43:01;;;;;;;1.17;1.07;;;;;;;;;;5116696;28;20449;-59
2023/11/06 04:45:28;;;;;;;2.80;1.00;;;;;;;;;;5116482;28;20477;-59
2023/11/06 04:47:55;;;;;;;0.97;0.97;;;;;;;;;;5116372;28;20448;-59
2023/11/06 04:50:22;;;;;;;2.10;1.27;;;;;;;;;;5116580;28;20820;-59
2023/11/06 04:52:49;;;;;;;1.20;0.97;;;;;;;;;;5116499;28;20541;-60
2023/11/06 04:55:16;;;;;;;1.40;1.13;;;;;;;;;;5116426;28;20504;-59
2023/11/06 04:57:43;;;;;;;4.43;1.20;;;;;;;;;;5116349;28;20475;-59
2023/11/06 05:00:12;;;;;;;2.63;1.30;;;;;;;;;;5116231;28;20720;-60
2023/11/06 05:02:39;;;;;;;1.30;1.00;;;;;;;;;;5116085;28;20437;-59
2023/11/06 05:05:09;;;;;;;1.40;1.10;;;;;;;;;;5116247;28;20473;-59
2023/11/06 05:07:35;;;;;;;3.03;1.40;;;;;;;;;;5116208;28;20469;-60
2023/11/06 05:10:05;;;;;;;2.30;1.10;;;;;;;;;;5116132;28;20446;-59
2023/11/06 05:12:32;;;;;;;1.70;1.00;;;;;;;;;;5116096;28;20446;-60
2023/11/06 05:15:00;;;;;;;2.10;0.90;;;;;;;;;;5115887;28;20473;-61
2023/11/06 05:17:28;;;;;;;2.30;1.00;;;;;;;;;;5116053;28;20528;-60
2023/11/06 05:19:55;;;;;;;1.43;1.33;;;;;;;;;;5115985;28;20524;-60
2023/11/06 05:22:22;;;;;;;2.40;1.03;;;;;;;;;;5115912;28;20491;-60
2023/11/06 05:24:49;;;;;;;1.33;1.00;;;;;;;;;;5115725;28;20441;-60
2023/11/06 05:27:16;;;;;;;3.60;0.93;;;;;;;;;;5115693;28;20478;-60
2023/11/06 05:29:44;;;;;;;2.50;1.37;;;;;;;;;;5115494;28;20533;-59
2023/11/06 05:32:11;;;;;;;2.07;1.00;;;;;;;;;;5116040;28;20449;-59
2023/11/06 05:34:40;;;;;;;1.57;0.90;;;;;;;;;;5115796;28;20638;-59
2023/11/06 05:37:07;;;;;;;5.43;1.13;;;;;;;;;;5115513;28;20446;-59
2023/11/06 05:39:35;;;;;;;2.80;0.80;;;;;;;;;;5115418;28;20533;-59
2023/11/06 05:42:02;;;;;;;1.13;1.00;;;;;;;;;;5115210;28;20804;-59
2023/11/06 05:44:29;;;;;;;5.30;1.10;;;;;;;;;;5115215;28;20825;-60
2023/11/06 05:46:57;;;;;;;2.67;1.00;;;;;;;;;;5115358;28;20482;-60
2023/11/06 05:49:23;;;;;;;2.37;0.93;;;;;;;;;;5115356;28;20805;-60
2023/11/06 05:51:52;;;;;;;3.13;1.27;;;;;;;;;;5115251;28;20442;-60
2023/11/06 05:54:19;;;;;;;1.93;1.03;;;;;;;;;;5115386;28;20448;-60
2023/11/06 05:56:46;;;;;;;3.20;0.90;;;;;;;;;;5114898;28;20434;-60
2023/11/06 05:59:13;;;;;;;1.70;0.90;;;;;;;;;;5114878;28;20933;-60
2023/11/06 06:01:40;;;;;;;2.83;1.10;;;;;;;;;;5115320;28;20524;-60
2023/11/06 06:04:07;;;;;;;3.57;0.93;;;;;;;;;;5115050;28;20444;-60
2023/11/06 06:06:34;;;;;;;2.67;1.10;;;;;;;;;;5114886;28;20479;-60
2023/11/06 06:09:04;;;;;;;2.20;1.10;;;;;;;;;;5114743;28;20948;-60
2023/11/06 06:11:36;;;;;;;3.77;1.13;;;;;;;;;;5114642;28;20445;-60
2023/11/06 06:14:03;;;;;;;3.03;1.17;;;;;;;;;;5114801;28;20541;-60
2023/11/06 06:16:30;;;;;;;1.13;0.90;;;;;;;;;;5114713;28;20478;-60
2023/11/06 06:18:56;;;;;;;2.23;1.13;;;;;;;;;;5114690;28;20830;-60
2023/11/06 06:21:23;;;;;;;5.90;2.40;;;;;;;;;;5114501;28;20954;-60
2023/11/06 06:23:50;;;;;;;4.47;0.93;;;;;;;;;;5114424;28;20530;-60
2023/11/06 06:26:19;;;;;;;2.07;1.00;;;;;;;;;;5114606;28;20469;-60
2023/11/06 06:28:46;;;;;;;2.80;1.23;;;;;;;;;;5114633;28;20877;-60
2023/11/06 06:31:13;;;;;;;1.60;1.13;;;;;;;;;;5114337;28;20456;-60
2023/11/06 06:33:40;;;;;;;1.10;0.90;;;;;;;;;;5114078;28;20778;-60
2023/11/06 06:36:11;;;;;;;3.27;1.27;;;;;;;;;;5114187;28;20507;-60
2023/11/06 06:38:38;;;;;;;7.27;1.13;;;;;;;;;;5114455;28;20453;-59
2023/11/06 06:41:06;;;;;;;4.30;0.90;;;;;;;;;;5114287;28;20865;-60
2023/11/06 06:43:35;;;;;;;1.70;0.83;;;;;;;;;;5114009;28;22655;-60
2023/11/06 06:46:02;;;;;;;2.23;1.00;;;;;;;;;;5113981;28;20870;-59
2023/11/06 06:48:29;;;;;;;1.40;0.90;;;;;;;;;;5114142;28;20911;-60
2023/11/06 06:50:56;;;;;;;3.00;1.17;;;;;;;;;;5113442;28;20959;-60
2023/11/06 06:53:23;;;;;;;3.23;1.13;;;;;;;;;;5114086;28;20450;-59
2023/11/06 06:55:51;;;;;;;1.30;1.10;;;;;;;;;;5114032;28;20441;-59
2023/11/06 06:58:18;;;;;;;4.20;1.00;;;;;;;;;;5113951;28;20809;-59
2023/11/06 07:00:46;;;;;;;1.50;0.93;;;;;;;;;;5113922;28;20533;-59
2023/11/06 07:03:14;;;;;;;3.07;1.50;;;;;;;;;;5113698;28;20951;-59
2023/11/06 07:05:41;;;;;;;4.50;0.90;;;;;;;;;;5113933;28;20442;-59
2023/11/06 07:08:08;;;;;;;3.57;1.13;;;;;;;;;;5113707;28;20450;-59
2023/11/06 07:10:35;;;;;;;2.60;0.80;;;;;;;;;;5113816;28;20442;-60
2023/11/06 07:13:03;;;;;;;1.33;1.00;;;;;;;;;;5113582;28;20929;-59
2023/11/06 07:15:30;;;;;;;4.20;1.00;;;;;;;;;;5113583;28;20469;-59
2023/11/06 07:18:01;;;;;;;1.47;0.90;;;;;;;;;;5113607;28;20446;-59
2023/11/06 07:20:29;;;;;;;7.10;1.20;;;;;;;;;;5113624;28;20471;-59
2023/11/06 07:22:57;;;;;;;1.13;0.90;;;;;;;;;;5113534;28;20445;-59
2023/11/06 07:25:24;;;;;;;2.20;1.50;;;;;;;;;;5110296;28;20445;-59
2023/11/06 07:27:51;;;;;;;2.40;1.20;;;;;;;;;;5113216;28;20564;-59
2023/11/06 07:30:18;;;;;;;1.10;1.00;;;;;;;;;;5113039;28;20771;-60
2023/11/06 07:32:45;;;;;;;3.50;1.43;;;;;;;;;;5113256;28;20846;-59
2023/11/06 07:35:13;;;;;;;0.83;0.80;;;;;;;;;;5113357;28;21002;-59
2023/11/06 07:37:41;;;;;;;1.27;1.10;;;;;;;;;;5113281;28;20532;-61
2023/11/06 07:40:11;;;;;;;1.30;0.93;;;;;;;;;;5113434;28;20491;-60
2023/11/06 07:42:38;;;;;;;1.50;0.90;;;;;;;;;;5092775;28;20942;-59
2023/11/06 07:45:05;;;;;;;1.67;1.23;;;;;;;;;;5092883;28;20574;-59
2023/11/06 07:47:33;;;;;;;3.83;1.87;;;;;;;;;;5092990;28;20569;-59
2023/11/06 07:50:00;;;;;;;1.50;1.30;;;;;;;;;;5092945;28;20537;-59
2023/11/06 07:52:30;;;;;;;3.40;1.37;;;;;;;;;;5092788;28;20487;-59
2023/11/06 07:54:58;;;;;;;1.87;1.40;;;;;;;;;;5092956;28;20469;-59
2023/11/06 07:57:25;;;;;;;1.83;1.20;;;;;;;;;;5111721;28;20446;-60
2023/11/06 07:59:52;;;;;;;3.20;2.03;;;;;;;;;;5112331;28;20499;-60
2023/11/06 08:02:19;;;;;;;2.80;1.20;;;;;;;;;;5112684;28;20839;-60
2023/11/06 08:04:46;;;;;;;2.00;1.10;;;;;;;;;;5116529;28;21003;-60
2023/11/06 08:07:13;;;;;;;5.63;1.77;;;;;;;;;;5116600;28;20462;-60
2023/11/06 08:09:43;;;;;;;1.50;1.10;;;;;;;;;;5117099;27;20449;-58
2023/11/06 08:12:12;;;;;;;1.87;0.90;;;;;;;;;;5116271;28;20962;-64
2023/11/06 08:14:39;;;;;;;1.97;0.80;;;;;;;;;;5116680;28;20520;-60
2023/11/06 08:17:07;;;;;;;3.40;1.00;;;;;;;;;;5116523;28;20491;-61
2023/11/06 08:19:38;;;;;;;2.30;1.30;;;;;;;;;;5116832;28;20441;-63
2023/11/06 08:22:07;;;;;;;1.40;0.83;;;;;;;;;;5116462;28;20438;-61
2023/11/06 08:24:34;;;;;;;3.23;0.90;;;;;;;;;;5114024;28;20438;-58
2023/11/06 08:27:03;;;;;;;1.10;0.80;;;;;;;;;;5116426;28;20479;-60
2023/11/06 08:29:30;;;;;;;1.90;0.90;;;;;;;;;;5116294;28;20445;-60
2023/11/06 08:31:59;;;;;;;1.23;0.73;;;;;;;;;;5116362;28;20498;-60
2023/11/06 08:34:26;;;;;;;1.57;0.90;;;;;;;;;;5116260;28;20951;-59
2023/11/06 08:36:53;;;;;;;4.77;1.20;;;;;;;;;;5116174;28;20441;-60
2023/11/06 08:39:20;;;;;;;1.30;0.70;;;;;;;;;;5116377;28;20496;-59
2023/11/06 08:41:47;;;;;;;2.93;0.70;;;;;;;;;;5116575;28;20452;-59
2023/11/06 08:44:15;;;;;;;1.00;0.90;;;;;;;;;;5116336;28;20492;-60
2023/11/06 08:46:43;;;;;;;2.40;1.00;;;;;;;;;;5116310;28;20530;-60
2023/11/06 08:49:10;;;;;;;7.73;1.20;;;;;;;;;;5116324;28;20483;-60
2023/11/06 08:51:39;;;;;;;2.73;0.90;;;;;;;;;;5116045;28;20445;-61
2023/11/06 08:54:06;;;;;;;1.10;1.00;;;;;;;;;;5116442;28;20437;-60
2023/11/06 08:56:33;;;;;;;2.40;0.90;;;;;;;;;;5116450;28;20528;-60
2023/11/06 08:59:01;;;;;;;1.93;1.10;;;;;;;;;;5116278;28;20568;-62
2023/11/06 09:01:29;;;;;;;3.67;1.37;;;;;;;;;;5115853;28;20438;-60
2023/11/06 09:03:56;;;;;;;2.50;1.07;;;;;;;;;;5116000;28;20442;-61
2023/11/06 09:06:23;;;;;;;6.40;1.20;;;;;;;;;;5115805;28;20876;-60
2023/11/06 09:08:50;;;;;;;1.80;1.20;;;;;;;;;;5116052;28;20456;-61
2023/11/06 09:11:17;;;;;;;4.33;1.07;;;;;;;;;;5115950;28;20875;-67
2023/11/06 09:13:44;;;;;;;3.33;0.90;;;;;;;;;;5115759;28;20537;-68
2023/11/06 09:16:11;;;;;;;2.00;1.00;;;;;;;;;;5115835;28;20445;-59
2023/11/06 09:18:40;;;;;;;1.67;1.20;;;;;;;;;;5115156;28;20438;-59
2023/11/06 09:21:07;;;;;;;1.87;1.00;;;;;;;;;;5113001;28;20464;-61
2023/11/06 09:23:34;;;;;;;3.37;1.00;;;;;;;;;;5115590;28;20524;-60
2023/11/06 09:26:02;;;;;;;1.77;0.93;;;;;;;;;;5115248;28;20442;-59
2023/11/06 09:28:29;;;;;;;3.53;0.90;;;;;;;;;;5115596;28;20538;-60
2023/11/06 09:30:56;;;;;;;3.57;2.30;;;;;;;;;;5115727;28;20971;-60
2023/11/06 09:33:23;;;;;;;3.60;1.03;;;;;;;;;;5115371;28;20932;-60
2023/11/06 09:35:51;;;;;;;1.83;0.90;;;;;;;;;;5115917;28;20969;-59
2023/11/06 09:38:18;;;;;;;1.97;1.00;;;;;;;;;;5115558;28;20536;-60
2023/11/06 09:40:45;;;;;;;1.47;0.93;;;;;;;;;;5115373;28;20525;-60
2023/11/06 09:43:12;;;;;;;2.20;0.90;;;;;;;;;;5115312;28;20446;-59
2023/11/06 09:45:39;;;;;;;1.73;0.90;;;;;;;;;;5115147;28;20453;-60
2023/11/06 09:48:08;;;;;;;2.77;0.87;;;;;;;;;;5115162;28;20477;-60
2023/11/06 09:50:36;;;;;;;2.50;2.30;;;;;;;;;;5115297;28;20528;-60
2023/11/06 09:53:04;;;;;;;1.80;1.00;;;;;;;;;;5115204;28;20456;-60
2023/11/06 09:55:31;;;;;;;1.73;0.77;;;;;;;;;;5115227;28;20441;-60
2023/11/06 09:57:58;;;;;;;1.10;1.00;;;;;;;;;;5115333;28;20450;-59
2023/11/06 10:00:26;;;;;;;1.70;0.90;;;;;;;;;;5114812;28;20924;-59
2023/11/06 10:02:53;;;;;;;1.90;0.90;;;;;;;;;;5115138;28;20837;-59
2023/11/06 10:05:21;;;;;;;4.00;1.53;;;;;;;;;;5115105;28;20477;-60
2023/11/06 10:07:51;;;;;;;1.50;0.90;;;;;;;;;;5114862;28;20477;-59
2023/11/06 10:10:20;;;;;;;1.20;0.90;;;;;;;;;;5114890;28;20442;-59
2023/11/06 10:13:00;;;;;;;1.70;0.93;;;;;;;;;;5114582;28;21012;-60
2023/11/06 10:15:27;;;;;;;2.40;1.07;;;;;;;;;;5114851;28;20453;-59
2023/11/06 10:17:56;;;;;;;2.90;1.10;;;;;;;;;;5114747;28;20529;-60
2023/11/06 10:20:27;;;;;;;1.83;1.10;;;;;;;;;;5114644;28;20442;-60
2023/11/06 10:22:55;;;;;;;2.80;1.10;;;;;;;;;;5114326;28;20961;-59
2023/11/06 10:25:30;;;;;;;1.30;0.90;;;;;;;;;;5113916;28;20445;-60
2023/11/06 10:27:57;;;;;;;2.23;1.40;;;;;;;;;;5114514;28;21064;-60
2023/11/06 10:30:25;;;;;;;2.27;1.17;;;;;;;;;;5114483;28;20442;-60
2023/11/06 10:32:52;;;;;;;3.33;1.00;;;;;;;;;;5114444;28;20446;-60
2023/11/06 10:35:19;;;;;;;2.10;1.40;;;;;;;;;;5114236;28;20933;-60
2023/11/06 10:37:47;;;;;;;1.47;0.90;;;;;;;;;;5114387;28;20477;-60
2023/11/06 10:40:17;;;;;;;2.97;1.40;;;;;;;;;;5114150;28;20448;-60
2023/11/06 10:42:46;;;;;;;2.20;1.30;;;;;;;;;;5114261;28;20433;-60
2023/11/06 10:45:14;;;;;;;1.00;0.90;;;;;;;;;;5113447;28;20890;-60
2023/11/06 10:47:44;;;;;;;1.57;1.23;;;;;;;;;;5109085;28;20534;-60
2023/11/06 10:50:12;;;;;;;4.63;1.10;;;;;;;;;;5111595;28;20437;-60
2023/11/06 10:52:40;;;;;;;3.40;1.33;;;;;;;;;;5109469;28;20466;-60
2023/11/06 10:55:09;;;;;;;2.10;1.20;;;;;;;;;;5111799;28;20491;-60
2023/11/06 10:57:36;;;;;;;3.07;1.13;;;;;;;;;;5112367;28;20467;-60
2023/11/06 11:00:07;;;;;;;1.40;1.00;;;;;;;;;;5113115;28;20824;-60
2023/11/06 11:02:44;;;;;;;1.30;1.20;;;;;;;;;;5110292;28;20445;-61
2023/11/06 11:05:12;;;;;;;1.93;0.80;;;;;;;;;;5112949;28;20533;-60
2023/11/06 11:07:40;;;;;;;4.10;1.30;;;;;;;;;;5112977;28;20909;-60
2023/11/06 11:10:09;;;;;;;1.93;1.00;;;;;;;;;;5113084;28;20441;-60
2023/11/06 11:12:36;;;;;;;3.80;0.93;;;;;;;;;;5110934;28;20438;-60
2023/11/06 11:15:04;;;;;;;2.70;1.00;;;;;;;;;;5113448;28;20996;-59
2023/11/06 11:17:32;;;;;;;2.23;0.83;;;;;;;;;;5113375;28;20450;-60
2023/11/06 11:20:03;;;;;;;3.83;1.00;;;;;;;;;;5113322;28;20445;-60
2023/11/06 11:22:32;;;;;;;3.53;0.97;;;;;;;;;;5112850;28;20438;-60
2023/11/06 11:25:01;;;;;;;3.43;0.93;;;;;;;;;;5113566;28;20445;-60
2023/11/06 11:27:30;;;;;;;1.43;0.83;;;;;;;;;;5113272;28;20559;-60
2023/11/06 11:30:18;;;;;;;1.70;0.90;;;;;;;;;;5113247;28;20449;-60
2023/11/06 11:32:49;;;;;;;2.73;1.00;;;;;;;;;;5107248;28;20528;-60
2023/11/06 11:35:36;;;;;;;1.60;1.00;;;;;;;;;;5113424;28;20450;-60
2023/11/06 11:38:03;;;;;;;1.30;0.87;;;;;;;;;;5113245;28;20441;-60
2023/11/06 11:40:54;;;;;;;1.30;0.70;;;;;;;;;;5113116;28;20446;-60
2023/11/06 11:43:36;;;;;;;1.50;0.90;;;;;;;;;;5112834;28;20495;-60
2023/11/06 11:46:03;;;;;;;1.20;1.00;;;;;;;;;;5113165;28;20445;-59
2023/11/06 11:48:45;;;;;;;1.90;0.80;;;;;;;;;;5112956;28;20568;-67
2023/11/06 11:51:33;;;;;;;1.90;1.00;;;;;;;;;;5112963;28;20477;-61
2023/11/06 11:54:00;;;;;;;4.20;1.10;;;;;;;;;;5113091;28;20450;-59
2023/11/06 11:56:45;;;;;;;2.67;0.77;;;;;;;;;;5113189;28;20445;-60
2023/11/06 11:59:12;;;;;;;0.90;0.80;;;;;;;;;;5113011;28;20537;-58
2023/11/06 12:01:39;;;;;;;2.23;0.87;;;;;;;;;;5112859;28;21008;-59
2023/11/06 12:04:17;;;;;;;1.20;0.70;;;;;;;;;;5113176;28;20530;-58
2023/11/06 12:06:45;;;;;;;1.70;0.80;;;;;;;;;;5113038;28;20537;-59
2023/11/06 12:09:12;;;;;;;2.60;0.90;;;;;;;;;;5113001;28;20481;-59
2023/11/06 12:11:39;;;;;;;1.47;0.90;;;;;;;;;;5112856;28;20441;-59
2023/11/06 12:14:06;;;;;;;4.00;1.13;;;;;;;;;;5113006;28;20785;-59
2023/11/06 12:16:33;;;;;;;2.60;0.90;;;;;;;;;;5113022;28;20445;-59
2023/11/06 12:19:00;;;;;;;1.77;0.80;;;;;;;;;;5113271;28;20445;-59
2023/11/06 12:21:28;;;;;;;2.43;0.97;;;;;;;;;;5112863;28;20442;-58
2023/11/06 12:23:56;;;;;;;3.67;1.40;;;;;;;;;;5112936;28;20445;-58
2023/11/06 12:26:23;;;;;;;1.10;0.70;;;;;;;;;;5112753;28;20774;-58
2023/11/06 12:28:52;;;;;;;1.50;1.40;;;;;;;;;;5112940;28;20523;-58
2023/11/06 12:31:19;;;;;;;3.47;1.50;;;;;;;;;;5112885;28;20827;-58
2023/11/06 12:33:46;;;;;;;3.40;1.80;;;;;;;;;;5112821;28;20446;-58
2023/11/06 12:36:26;;;;;;;3.63;1.80;;;;;;;;;;5112747;28;20379;-60
2023/11/06 12:38:52;;;;;;;2.10;1.20;;;;;;;;;;5112439;28;20450;-61
2023/11/06 12:41:28;;;;;;;2.70;1.40;;;;;;;;;;5112778;28;20450;-59
2023/11/06 12:43:55;;;;;;;4.50;0.90;;;;;;;;;;5112816;28;20832;-59
2023/11/06 12:46:22;;;;;;;3.00;1.30;;;;;;;;;;5112487;28;21009;-60
2023/11/06 12:48:51;;;;;;;1.90;1.00;;;;;;;;;;5113089;28;20564;-59
2023/11/06 12:51:19;;;;;;;2.80;1.47;;;;;;;;;;5116181;28;20522;-63
2023/11/06 12:53:47;;;;;;;1.50;0.97;;;;;;;;;;5116357;28;20867;-60
2023/11/06 12:56:16;;;;;;;5.13;1.30;;;;;;;;;;5116197;28;20446;-58
2023/11/06 12:58:44;;;;;;;3.83;2.27;;;;;;;;;;5116047;28;20445;-61
2023/11/06 13:01:20;;;;;;;1.30;0.90;;;;;;;;;;5116109;28;20441;-59
2023/11/06 13:03:47;;;;;;;1.90;0.80;;;;;;;;;;5115979;28;20448;-59
2023/11/06 13:06:17;;;;;;;2.20;1.00;;;;;;;;;;5116079;28;20498;-58
2023/11/06 13:08:44;;;;;;;2.13;1.20;;;;;;;;;;5115909;28;20473;-59
2023/11/06 13:11:11;;;;;;;1.80;0.80;;;;;;;;;;5115909;28;20528;-59
2023/11/06 13:13:39;;;;;;;3.20;1.10;;;;;;;;;;5115966;28;20536;-59
2023/11/06 13:16:08;;;;;;;3.13;1.00;;;;;;;;;;5115754;28;20449;-61
2023/11/06 13:18:36;;;;;;;4.10;1.70;;;;;;;;;;5115483;28;20449;-64
2023/11/06 13:21:15;;;;;;;1.70;1.10;;;;;;;;;;5115635;28;20498;-60
2023/11/06 13:23:43;;;;;;;1.30;1.00;;;;;;;;;;5115781;28;20941;-62
2023/11/06 13:26:10;;;;;;;1.87;1.47;;;;;;;;;;5115654;28;20446;-59
2023/11/06 13:28:38;;;;;;;2.47;1.70;;;;;;;;;;5114466;28;20491;-60
2023/11/06 13:31:06;;;;;;;0.90;0.70;;;;;;;;;;5115219;28;20241;-60
2023/11/06 13:33:35;;;;;;;1.50;0.83;;;;;;;;;;5115647;28;20929;-61
2023/11/06 13:36:02;;;;;;;3.03;1.30;;;;;;;;;;5115379;28;20442;-59
2023/11/06 13:38:30;;;;;;;2.10;0.73;;;;;;;;;;5115064;28;20529;-62
2023/11/06 13:40:58;;;;;;;2.37;0.90;;;;;;;;;;5115583;27;20670;-62
2023/11/06 13:43:25;;;;;;;3.07;1.00;;;;;;;;;;5115351;28;20677;-62
2023/11/06 13:45:52;;;;;;;2.83;1.10;;;;;;;;;;5115431;28;20532;-61
2023/11/06 13:48:20;;;;;;;2.17;1.20;;;;;;;;;;5115276;28;20824;-60
2023/11/06 13:50:50;;;;;;;3.43;1.33;;;;;;;;;;5115120;28;20481;-61
2023/11/06 13:53:22;;;;;;;1.40;1.00;;;;;;;;;;5115181;28;20499;-61
2023/11/06 13:55:50;;;;;;;1.77;1.60;;;;;;;;;;5115163;28;20933;-61
2023/11/06 13:58:17;;;;;;;7.33;2.60;;;;;;;;;;5115186;28;20839;-60
2023/11/06 14:00:47;;;;;;;2.07;1.77;;;;;;;;;;5114163;28;20522;-60
2023/11/06 14:03:15;;;;;;;4.70;1.77;;;;;;;;;;5114941;28;20469;-60
2023/11/06 14:05:45;;;;;;;2.30;1.00;;;;;;;;;;5114956;28;20528;-60
2023/11/06 14:08:14;;;;;;;1.97;1.00;;;;;;;;;;5114559;28;20442;-60
2023/11/06 14:10:42;;;;;;;1.50;1.00;;;;;;;;;;5114735;28;20778;-60
2023/11/06 14:13:10;;;;;;;2.83;1.30;;;;;;;;;;5114793;28;20445;-60
2023/11/06 14:15:37;;;;;;;3.63;1.20;;;;;;;;;;5114784;28;20492;-60
2023/11/06 14:18:04;;;;;;;2.93;1.70;;;;;;;;;;5114798;28;20952;-60
2023/11/06 14:20:32;;;;;;;1.97;1.10;;;;;;;;;;5114648;28;20446;-60
2023/11/06 14:22:59;;;;;;;2.70;1.10;;;;;;;;;;5114550;28;20963;-60
2023/11/06 14:25:27;;;;;;;2.50;1.40;;;;;;;;;;5114620;28;20511;-60
2023/11/06 14:27:54;;;;;;;2.60;0.97;;;;;;;;;;5114508;28;20445;-60
2023/11/06 14:30:24;;;;;;;2.87;1.30;;;;;;;;;;5114509;28;20487;-60
2023/11/06 14:32:51;;;;;;;3.67;1.10;;;;;;;;;;5114560;28;20442;-60
2023/11/06 14:35:18;;;;;;;5.33;1.13;;;;;;;;;;5114023;28;20441;-60
2023/11/06 14:37:51;;;;;;;3.27;1.23;;;;;;;;;;5114213;28;20537;-60
2023/11/06 14:40:18;;;;;;;4.60;1.83;;;;;;;;;;5114370;28;20524;-61
2023/11/06 14:42:47;;;;;;;4.00;1.10;;;;;;;;;;5111206;28;20528;-60
2023/11/06 14:45:16;;;;;;;3.23;1.10;;;;;;;;;;5110195;28;20473;-60
2023/11/06 14:47:43;;;;;;;6.70;2.13;;;;;;;;;;5112744;28;20534;-60